createdAt,value
2017-06-14T00:00:13.637Z,0
2017-06-14T00:01:14.224Z,0
2017-06-14T00:02:14.799Z,0
2017-06-14T00:03:15.384Z,0
2017-06-14T00:04:15.970Z,0
2017-06-14T00:05:16.548Z,0
2017-06-14T00:06:17.119Z,0
2017-06-14T00:07:17.694Z,0
2017-06-14T00:08:18.269Z,0
2017-06-14T00:09:18.843Z,0
2017-06-14T00:10:19.417Z,0
2017-06-14T00:11:19.990Z,0
2017-06-14T00:12:20.565Z,0
2017-06-14T00:13:21.139Z,0
2017-06-14T00:14:21.713Z,0
2017-06-14T00:15:22.287Z,0
2017-06-14T00:16:22.862Z,0
2017-06-14T00:17:23.435Z,0
2017-06-14T00:18:24.013Z,0
2017-06-14T00:19:24.583Z,0
2017-06-14T00:20:25.157Z,0
2017-06-14T00:21:25.731Z,0
2017-06-14T00:22:26.306Z,0
2017-06-14T00:23:26.880Z,0
2017-06-14T00:24:27.454Z,0
2017-06-14T00:25:28.028Z,0
2017-06-14T00:26:28.603Z,0
2017-06-14T00:27:29.178Z,0
2017-06-14T00:28:29.751Z,0
2017-06-14T00:29:30.326Z,0
2017-06-14T00:30:30.900Z,0
2017-06-14T00:31:31.472Z,0
2017-06-14T00:32:32.047Z,0
2017-06-14T00:33:32.634Z,0
2017-06-14T00:34:33.207Z,0
2017-06-14T00:35:33.784Z,0
2017-06-14T00:36:34.370Z,0
2017-06-14T00:37:34.945Z,0
2017-06-14T00:38:35.521Z,0
2017-06-14T00:39:36.094Z,0
2017-06-14T00:40:36.669Z,0
2017-06-14T00:41:37.243Z,0
2017-06-14T00:42:37.817Z,0
2017-06-14T00:43:38.391Z,0
2017-06-14T00:44:38.968Z,0
2017-06-14T00:45:39.541Z,0
2017-06-14T00:46:40.115Z,0
2017-06-14T00:47:40.691Z,0
2017-06-14T00:48:41.264Z,0
2017-06-14T00:49:41.836Z,0
2017-06-14T00:50:42.411Z,0
2017-06-14T00:51:42.983Z,0
2017-06-14T00:52:43.558Z,0
2017-06-14T00:53:44.131Z,0
2017-06-14T00:54:44.705Z,0
2017-06-14T00:55:45.279Z,0
2017-06-14T00:56:45.852Z,0
2017-06-14T00:57:46.427Z,0
2017-06-14T00:58:47.001Z,0
2017-06-14T00:59:47.576Z,0
2017-06-14T01:00:48.150Z,0
2017-06-14T01:01:48.725Z,0
2017-06-14T01:02:49.297Z,0
2017-06-14T01:03:49.872Z,0
2017-06-14T01:04:50.445Z,0
2017-06-14T01:05:51.020Z,0
2017-06-14T01:06:51.593Z,0
2017-06-14T01:07:52.183Z,0
2017-06-14T01:08:52.768Z,0
2017-06-14T01:09:53.343Z,0
2017-06-14T01:10:53.918Z,0
2017-06-14T01:11:54.491Z,0
2017-06-14T01:12:55.067Z,0
2017-06-14T01:13:55.642Z,0
2017-06-14T01:14:56.227Z,0
2017-06-14T01:15:56.801Z,0
2017-06-14T01:16:57.387Z,0
2017-06-14T01:17:57.963Z,0
2017-06-14T01:18:58.537Z,0
2017-06-14T01:19:59.111Z,0
2017-06-14T01:20:59.684Z,0
2017-06-14T01:22:00.258Z,0
2017-06-14T01:23:00.843Z,0
2017-06-14T01:24:01.418Z,0
2017-06-14T01:25:01.995Z,0
2017-06-14T01:26:02.567Z,0
2017-06-14T01:27:03.143Z,0
2017-06-14T01:28:03.718Z,0
2017-06-14T01:29:04.292Z,0
2017-06-14T01:30:04.865Z,0
2017-06-14T01:31:05.440Z,0
2017-06-14T01:32:06.012Z,0
2017-06-14T01:33:06.588Z,0
2017-06-14T01:34:07.161Z,0
2017-06-14T01:35:07.735Z,0
2017-06-14T01:36:08.320Z,0
2017-06-14T01:37:08.894Z,0
2017-06-14T01:38:09.470Z,0
2017-06-14T01:39:10.056Z,0
2017-06-14T01:40:10.630Z,0
2017-06-14T01:41:11.206Z,0
2017-06-14T01:42:11.780Z,0
2017-06-14T01:43:12.356Z,0
2017-06-14T01:44:12.929Z,0
2017-06-14T01:45:13.506Z,0
2017-06-14T01:46:14.078Z,0
2017-06-14T01:47:14.653Z,0
2017-06-14T01:48:15.225Z,0
2017-06-14T01:49:15.801Z,0
2017-06-14T01:50:16.374Z,0
2017-06-14T01:51:16.949Z,0
2017-06-14T01:52:17.523Z,0
2017-06-14T01:53:18.097Z,0
2017-06-14T01:54:18.670Z,0
2017-06-14T01:55:19.244Z,0
2017-06-14T01:56:19.818Z,0
2017-06-14T01:57:20.392Z,0
2017-06-14T01:58:20.977Z,0
2017-06-14T01:59:21.550Z,0
2017-06-14T02:00:22.127Z,0
2017-06-14T02:01:22.700Z,0
2017-06-14T02:02:23.275Z,0
2017-06-14T02:03:23.848Z,0
2017-06-14T02:04:24.422Z,0
2017-06-14T02:05:24.995Z,0
2017-06-14T02:06:25.571Z,0
2017-06-14T02:07:26.144Z,0
2017-06-14T02:08:26.718Z,0
2017-06-14T02:09:27.290Z,0
2017-06-14T02:10:27.863Z,0
2017-06-14T02:11:28.438Z,0
2017-06-14T02:12:29.009Z,0
2017-06-14T02:13:29.584Z,0
2017-06-14T02:14:30.156Z,0
2017-06-14T02:15:30.729Z,0
2017-06-14T02:16:31.303Z,0
2017-06-14T02:17:31.876Z,0
2017-06-14T02:18:32.449Z,0
2017-06-14T02:19:33.024Z,0
2017-06-14T02:20:33.596Z,0
2017-06-14T02:21:34.170Z,0
2017-06-14T02:22:34.743Z,0
2017-06-14T02:23:35.316Z,0
2017-06-14T02:24:35.888Z,0
2017-06-14T02:25:36.463Z,0
2017-06-14T02:26:37.036Z,0
2017-06-14T02:27:37.609Z,0
2017-06-14T02:28:38.183Z,0
2017-06-14T02:29:38.769Z,0
2017-06-14T02:30:39.340Z,0
2017-06-14T02:31:39.915Z,0
2017-06-14T02:32:40.489Z,0
2017-06-14T02:33:41.067Z,0
2017-06-14T02:34:41.637Z,0
2017-06-14T02:35:42.211Z,0
2017-06-14T02:36:42.784Z,0
2017-06-14T02:37:43.357Z,0
2017-06-14T02:38:43.930Z,0
2017-06-14T02:39:44.504Z,0
2017-06-14T02:40:45.076Z,0
2017-06-14T02:41:45.650Z,0
2017-06-14T02:42:46.222Z,0
2017-06-14T02:43:46.795Z,0
2017-06-14T02:44:47.369Z,0
2017-06-14T02:45:47.942Z,0
2017-06-14T02:46:48.527Z,0
2017-06-14T02:47:49.100Z,0
2017-06-14T02:48:49.675Z,0
2017-06-14T02:49:50.248Z,0
2017-06-14T02:50:50.823Z,0
2017-06-14T02:51:51.396Z,0
2017-06-14T02:52:51.970Z,0
2017-06-14T02:53:52.544Z,0
2017-06-14T02:54:53.116Z,0
2017-06-14T02:55:53.690Z,0
2017-06-14T02:56:54.274Z,0
2017-06-14T02:57:54.850Z,0
2017-06-14T02:58:55.423Z,0
2017-06-14T02:59:55.997Z,0
2017-06-14T03:00:56.571Z,0
2017-06-14T03:01:57.147Z,0
2017-06-14T03:02:57.719Z,0
2017-06-14T03:03:58.293Z,0
2017-06-14T03:04:58.867Z,0
2017-06-14T03:05:59.441Z,0
2017-06-14T03:07:00.014Z,0
2017-06-14T03:08:00.588Z,0
2017-06-14T03:09:01.162Z,0
2017-06-14T03:10:01.739Z,0
2017-06-14T03:11:02.314Z,0
2017-06-14T03:12:02.888Z,0
2017-06-14T03:13:03.464Z,0
2017-06-14T03:14:04.037Z,0
2017-06-14T03:15:04.612Z,0
2017-06-14T03:16:05.186Z,0
2017-06-14T03:17:05.772Z,0
2017-06-14T03:18:06.348Z,0
2017-06-14T03:19:06.921Z,0
2017-06-14T03:20:07.496Z,0
2017-06-14T03:21:08.072Z,0
2017-06-14T03:22:08.643Z,0
2017-06-14T03:23:09.218Z,0
2017-06-14T03:24:09.791Z,0
2017-06-14T03:25:10.365Z,0
2017-06-14T03:26:10.938Z,0
2017-06-14T03:27:11.515Z,0
2017-06-14T03:28:12.089Z,0
2017-06-14T03:29:12.666Z,0
2017-06-14T03:30:13.238Z,0
2017-06-14T03:31:13.814Z,0
2017-06-14T03:32:14.400Z,0
2017-06-14T03:33:14.975Z,0
2017-06-14T03:34:15.550Z,0
2017-06-14T03:35:16.125Z,0
2017-06-14T03:36:16.700Z,0
2017-06-14T03:37:17.273Z,0
2017-06-14T03:38:17.847Z,0
2017-06-14T03:39:18.420Z,0
2017-06-14T03:40:18.993Z,0
2017-06-14T03:41:19.567Z,0
2017-06-14T03:42:20.140Z,0
2017-06-14T03:43:20.728Z,0
2017-06-14T03:44:21.303Z,0
2017-06-14T03:45:21.877Z,0
2017-06-14T03:46:22.453Z,0
2017-06-14T03:47:23.028Z,0
2017-06-14T03:48:23.605Z,5
2017-06-14T03:49:24.179Z,5
2017-06-14T03:50:24.757Z,5
2017-06-14T03:51:25.331Z,5
2017-06-14T03:52:25.905Z,5
2017-06-14T03:53:26.481Z,5
2017-06-14T03:54:27.055Z,5
2017-06-14T03:55:27.632Z,5
2017-06-14T03:56:28.207Z,5
2017-06-14T03:57:28.785Z,5
2017-06-14T03:58:29.359Z,5
2017-06-14T03:59:29.934Z,5
2017-06-14T04:00:30.509Z,5
2017-06-14T04:01:31.084Z,5
2017-06-14T04:02:31.660Z,5
2017-06-14T04:03:32.236Z,5
2017-06-14T04:04:32.812Z,5
2017-06-14T04:05:33.400Z,5
2017-06-14T04:06:33.987Z,5
2017-06-14T04:07:34.574Z,5
2017-06-14T04:08:35.150Z,5
2017-06-14T04:09:35.724Z,5
2017-06-14T04:10:36.298Z,5
2017-06-14T04:11:36.873Z,5
2017-06-14T04:12:37.449Z,5
2017-06-14T04:13:38.026Z,5
2017-06-14T04:14:38.612Z,5
2017-06-14T04:15:39.188Z,5
2017-06-14T04:16:39.764Z,5
2017-06-14T04:17:40.339Z,5
2017-06-14T04:18:40.917Z,10
2017-06-14T04:19:41.493Z,5
2017-06-14T04:20:42.069Z,10
2017-06-14T04:21:42.647Z,10
2017-06-14T04:22:43.224Z,10
2017-06-14T04:23:43.802Z,10
2017-06-14T04:24:44.377Z,10
2017-06-14T04:25:44.966Z,10
2017-06-14T04:26:45.543Z,10
2017-06-14T04:27:46.118Z,10
2017-06-14T04:28:46.695Z,10
2017-06-14T04:29:47.273Z,10
2017-06-14T04:30:47.860Z,10
2017-06-14T04:31:48.438Z,10
2017-06-14T04:32:49.016Z,10
2017-06-14T04:33:49.605Z,10
2017-06-14T04:34:50.181Z,10
2017-06-14T04:35:50.759Z,10
2017-06-14T04:36:51.335Z,10
2017-06-14T04:37:51.911Z,10
2017-06-14T04:38:52.489Z,10
2017-06-14T04:39:53.066Z,10
2017-06-14T04:40:53.644Z,15
2017-06-14T04:41:54.220Z,15
2017-06-14T04:42:54.797Z,15
2017-06-14T04:43:55.374Z,15
2017-06-14T04:44:55.951Z,15
2017-06-14T04:45:56.530Z,15
2017-06-14T04:46:57.106Z,15
2017-06-14T04:47:57.682Z,15
2017-06-14T04:48:58.260Z,15
2017-06-14T04:49:58.839Z,15
2017-06-14T04:50:59.416Z,15
2017-06-14T04:51:59.992Z,15
2017-06-14T04:53:00.569Z,15
2017-06-14T04:54:01.147Z,15
2017-06-14T04:55:01.724Z,15
2017-06-14T04:56:02.303Z,15
2017-06-14T04:57:02.879Z,15
2017-06-14T04:58:03.456Z,15
2017-06-14T04:59:04.033Z,15
2017-06-14T05:00:04.611Z,15
2017-06-14T05:01:05.191Z,20
2017-06-14T05:02:05.767Z,20
2017-06-14T05:03:06.343Z,20
2017-06-14T05:04:06.922Z,20
2017-06-14T05:05:07.499Z,20
2017-06-14T05:06:08.078Z,20
2017-06-14T05:07:08.654Z,20
2017-06-14T05:08:09.231Z,20
2017-06-14T05:09:09.809Z,20
2017-06-14T05:10:10.387Z,20
2017-06-14T05:11:10.966Z,20
2017-06-14T05:12:11.543Z,20
2017-06-14T05:13:12.119Z,20
2017-06-14T05:14:12.698Z,20
2017-06-14T05:15:13.288Z,20
2017-06-14T05:16:13.865Z,20
2017-06-14T05:17:14.444Z,20
2017-06-14T05:18:15.021Z,20
2017-06-14T05:19:15.598Z,20
2017-06-14T05:20:16.176Z,20
2017-06-14T05:21:16.752Z,20
2017-06-14T05:22:17.332Z,20
2017-06-14T05:23:17.909Z,20
2017-06-14T05:24:18.487Z,20
2017-06-14T05:25:19.065Z,20
2017-06-14T05:26:19.641Z,20
2017-06-14T05:27:20.220Z,20
2017-06-14T05:28:20.799Z,20
2017-06-14T05:29:21.377Z,20
2017-06-14T05:30:21.954Z,20
2017-06-14T05:31:22.532Z,20
2017-06-14T05:32:23.111Z,20
2017-06-14T05:33:23.688Z,20
2017-06-14T05:34:24.268Z,20
2017-06-14T05:35:24.845Z,20
2017-06-14T05:36:25.423Z,20
2017-06-14T05:37:26.002Z,20
2017-06-14T05:38:26.591Z,20
2017-06-14T05:39:27.180Z,20
2017-06-14T05:40:27.758Z,20
2017-06-14T05:41:28.335Z,20
2017-06-14T05:42:28.913Z,20
2017-06-14T05:43:29.493Z,20
2017-06-14T05:44:30.070Z,20
2017-06-14T05:45:30.648Z,20
2017-06-14T05:46:31.225Z,20
2017-06-14T05:47:31.804Z,20
2017-06-14T05:48:32.383Z,25
2017-06-14T05:49:32.961Z,20
2017-06-14T05:50:33.538Z,25
2017-06-14T05:51:34.116Z,25
2017-06-14T05:52:34.694Z,20
2017-06-14T05:53:35.273Z,20
2017-06-14T05:54:35.851Z,20
2017-06-14T05:55:36.430Z,25
2017-06-14T05:56:37.008Z,25
2017-06-14T05:57:37.598Z,25
2017-06-14T05:58:38.176Z,25
2017-06-14T05:59:38.754Z,25
2017-06-14T06:00:39.334Z,25
2017-06-14T06:01:39.913Z,25
2017-06-14T06:02:40.501Z,25
2017-06-14T06:03:41.081Z,25
2017-06-14T06:04:41.670Z,25
2017-06-14T06:05:42.252Z,25
2017-06-14T06:06:42.828Z,25
2017-06-14T06:07:43.408Z,25
2017-06-14T06:08:43.987Z,25
2017-06-14T06:09:44.564Z,25
2017-06-14T06:10:45.143Z,25
2017-06-14T06:11:45.727Z,25
2017-06-14T06:12:46.302Z,25
2017-06-14T06:13:46.880Z,25
2017-06-14T06:14:47.458Z,25
2017-06-14T06:15:48.040Z,25
2017-06-14T06:16:48.616Z,25
2017-06-14T06:17:49.198Z,25
2017-06-14T06:18:49.776Z,25
2017-06-14T06:19:50.354Z,25
2017-06-14T06:20:50.934Z,25
2017-06-14T06:21:51.514Z,25
2017-06-14T06:22:52.093Z,25
2017-06-14T06:23:52.673Z,25
2017-06-14T06:24:53.251Z,25
2017-06-14T06:25:53.831Z,25
2017-06-14T06:26:54.422Z,30
2017-06-14T06:27:55.000Z,30
2017-06-14T06:28:55.580Z,30
2017-06-14T06:29:56.159Z,30
2017-06-14T06:30:56.751Z,30
2017-06-14T06:31:57.331Z,30
2017-06-14T06:32:57.910Z,30
2017-06-14T06:33:58.530Z,30
2017-06-14T06:34:59.080Z,30
2017-06-14T06:35:59.674Z,30
2017-06-14T06:37:00.250Z,30
2017-06-14T06:38:00.829Z,30
2017-06-14T06:39:01.407Z,30
2017-06-14T06:40:01.987Z,30
2017-06-14T06:41:02.567Z,30
2017-06-14T06:42:03.146Z,30
2017-06-14T06:43:03.725Z,30
2017-06-14T06:44:04.304Z,30
2017-06-14T06:45:04.883Z,30
2017-06-14T06:46:05.463Z,30
2017-06-14T06:47:06.041Z,30
2017-06-14T06:48:06.621Z,30
2017-06-14T06:49:07.200Z,30
2017-06-14T06:50:07.791Z,30
2017-06-14T06:51:08.370Z,30
2017-06-14T06:52:08.949Z,30
2017-06-14T06:53:09.528Z,30
2017-06-14T06:54:10.108Z,30
2017-06-14T06:55:10.687Z,30
2017-06-14T06:56:11.268Z,30
2017-06-14T06:57:11.847Z,30
2017-06-14T06:58:12.425Z,30
2017-06-14T06:59:13.007Z,30
2017-06-14T07:00:13.597Z,30
2017-06-14T07:01:14.179Z,30
2017-06-14T07:02:14.762Z,30
2017-06-14T07:03:15.339Z,30
2017-06-14T07:04:15.917Z,30
2017-06-14T07:05:16.496Z,25
2017-06-14T07:06:17.076Z,30
2017-06-14T07:07:17.657Z,30
2017-06-14T07:08:18.237Z,30
2017-06-14T07:09:18.816Z,30
2017-06-14T07:10:19.395Z,30
2017-06-14T07:11:19.974Z,30
2017-06-14T07:12:20.555Z,30
2017-06-14T07:13:21.134Z,30
2017-06-14T07:14:21.714Z,30
2017-06-14T07:15:22.294Z,30
2017-06-14T07:16:22.874Z,30
2017-06-14T07:17:23.454Z,30
2017-06-14T07:18:24.035Z,25
2017-06-14T07:19:24.616Z,30
2017-06-14T07:20:25.195Z,30
2017-06-14T07:21:25.774Z,30
2017-06-14T07:22:26.356Z,30
2017-06-14T07:23:26.936Z,25
2017-06-14T07:24:27.518Z,30
2017-06-14T07:25:28.108Z,35
2017-06-14T07:26:28.678Z,35
2017-06-14T07:27:29.259Z,35
2017-06-14T07:28:29.839Z,35
2017-06-14T07:29:30.419Z,35
2017-06-14T07:30:31.000Z,35
2017-06-14T07:31:31.579Z,35
2017-06-14T07:32:32.161Z,35
2017-06-14T07:33:32.752Z,35
2017-06-14T07:34:33.333Z,35
2017-06-14T07:35:33.915Z,35
2017-06-14T07:36:34.496Z,30
2017-06-14T07:37:35.075Z,30
2017-06-14T07:38:35.669Z,30
2017-06-14T07:39:36.249Z,30
2017-06-14T07:40:36.828Z,30
2017-06-14T07:41:37.408Z,30
2017-06-14T07:42:37.989Z,30
2017-06-14T07:43:38.580Z,30
2017-06-14T07:44:39.161Z,35
2017-06-14T07:45:39.741Z,30
2017-06-14T07:46:40.327Z,30
2017-06-14T07:47:40.903Z,35
2017-06-14T07:48:41.482Z,35
2017-06-14T07:49:42.063Z,30
2017-06-14T07:50:42.643Z,30
2017-06-14T07:51:43.235Z,30
2017-06-14T07:52:43.815Z,35
2017-06-14T07:53:44.396Z,35
2017-06-14T07:54:44.977Z,35
2017-06-14T07:55:45.558Z,35
2017-06-14T07:56:46.139Z,35
2017-06-14T07:57:46.719Z,35
2017-06-14T07:58:47.299Z,30
2017-06-14T07:59:47.881Z,35
2017-06-14T08:00:48.463Z,35
2017-06-14T08:01:49.054Z,30
2017-06-14T08:02:49.635Z,30
2017-06-14T08:03:50.219Z,30
2017-06-14T08:04:50.798Z,35
2017-06-14T08:05:51.390Z,35
2017-06-14T08:06:51.970Z,35
2017-06-14T08:07:52.550Z,35
2017-06-14T08:08:53.130Z,35
2017-06-14T08:09:53.723Z,35
2017-06-14T08:10:54.305Z,35
2017-06-14T08:11:54.883Z,35
2017-06-14T08:12:55.473Z,35
2017-06-14T08:13:56.047Z,35
2017-06-14T08:14:56.628Z,35
2017-06-14T08:15:57.221Z,35
2017-06-14T08:16:57.802Z,35
2017-06-14T08:17:58.383Z,35
2017-06-14T08:18:58.977Z,35
2017-06-14T08:19:59.557Z,35
2017-06-14T08:21:00.149Z,35
2017-06-14T08:22:00.730Z,35
2017-06-14T08:23:01.311Z,35
2017-06-14T08:24:01.891Z,35
2017-06-14T08:25:02.472Z,35
2017-06-14T08:26:03.054Z,35
2017-06-14T08:27:03.635Z,35
2017-06-14T08:28:04.229Z,35
2017-06-14T08:29:04.810Z,35
2017-06-14T08:30:05.391Z,35
2017-06-14T08:31:05.984Z,35
2017-06-14T08:32:06.565Z,35
2017-06-14T08:33:07.147Z,35
2017-06-14T08:34:07.728Z,35
2017-06-14T08:35:08.309Z,35
2017-06-14T08:36:08.889Z,35
2017-06-14T08:37:09.472Z,35
2017-06-14T08:38:10.053Z,35
2017-06-14T08:39:10.633Z,35
2017-06-14T08:40:11.214Z,35
2017-06-14T08:41:11.794Z,35
2017-06-14T08:42:12.377Z,35
2017-06-14T08:43:12.958Z,35
2017-06-14T08:44:13.540Z,35
2017-06-14T08:45:14.121Z,35
2017-06-14T08:46:14.714Z,35
2017-06-14T08:47:15.294Z,35
2017-06-14T08:48:15.875Z,35
2017-06-14T08:49:16.456Z,35
2017-06-14T08:50:17.039Z,35
2017-06-14T08:51:17.620Z,35
2017-06-14T08:52:18.205Z,35
2017-06-14T08:53:18.783Z,35
2017-06-14T08:54:19.368Z,35
2017-06-14T08:55:19.948Z,35
2017-06-14T08:56:20.529Z,35
2017-06-14T08:57:21.111Z,35
2017-06-14T08:58:21.692Z,35
2017-06-14T08:59:22.278Z,35
2017-06-14T09:00:22.857Z,35
2017-06-14T09:01:23.437Z,35
2017-06-14T09:02:24.023Z,35
2017-06-14T09:03:24.600Z,35
2017-06-14T09:04:25.182Z,35
2017-06-14T09:05:25.765Z,35
2017-06-14T09:06:26.346Z,35
2017-06-14T09:07:26.929Z,35
2017-06-14T09:08:27.510Z,35
2017-06-14T09:09:28.091Z,35
2017-06-14T09:10:28.674Z,35
2017-06-14T09:11:29.256Z,35
2017-06-14T09:12:29.842Z,35
2017-06-14T09:13:30.422Z,35
2017-06-14T09:14:31.002Z,35
2017-06-14T09:15:31.585Z,35
2017-06-14T09:16:32.168Z,35
2017-06-14T09:17:32.752Z,35
2017-06-14T09:18:33.332Z,35
2017-06-14T09:19:33.914Z,35
2017-06-14T09:20:34.497Z,35
2017-06-14T09:21:35.080Z,35
2017-06-14T09:22:35.673Z,35
2017-06-14T09:23:36.257Z,35
2017-06-14T09:24:36.837Z,35
2017-06-14T09:25:37.420Z,35
2017-06-14T09:26:38.001Z,35
2017-06-14T09:27:38.584Z,35
2017-06-14T09:28:39.167Z,35
2017-06-14T09:29:39.760Z,35
2017-06-14T09:30:40.342Z,35
2017-06-14T09:31:40.926Z,35
2017-06-14T09:32:41.506Z,35
2017-06-14T09:33:42.088Z,35
2017-06-14T09:34:42.669Z,35
2017-06-14T09:35:43.251Z,35
2017-06-14T09:36:43.835Z,35
2017-06-14T09:37:44.417Z,35
2017-06-14T09:38:44.999Z,35
2017-06-14T09:39:45.583Z,35
2017-06-14T09:40:46.162Z,35
2017-06-14T09:41:46.746Z,35
2017-06-14T09:42:47.328Z,35
2017-06-14T09:43:47.920Z,35
2017-06-14T09:44:48.505Z,35
2017-06-14T09:45:49.086Z,40
2017-06-14T09:46:49.668Z,35
2017-06-14T09:47:50.250Z,40
2017-06-14T09:48:50.833Z,35
2017-06-14T09:49:51.416Z,40
2017-06-14T09:50:51.997Z,35
2017-06-14T09:51:52.579Z,40
2017-06-14T09:52:53.161Z,40
2017-06-14T09:53:53.742Z,40
2017-06-14T09:54:54.326Z,40
2017-06-14T09:55:54.907Z,40
2017-06-14T09:56:55.490Z,40
2017-06-14T09:57:56.073Z,40
2017-06-14T09:58:56.654Z,40
2017-06-14T09:59:57.237Z,40
2017-06-14T10:00:57.820Z,40
2017-06-14T10:01:58.403Z,40
2017-06-14T10:02:58.985Z,40
2017-06-14T10:03:59.578Z,40
2017-06-14T10:05:00.162Z,40
2017-06-14T10:06:00.743Z,40
2017-06-14T10:07:01.325Z,40
2017-06-14T10:08:01.909Z,40
2017-06-14T10:09:02.490Z,40
2017-06-14T10:10:03.074Z,40
2017-06-14T10:11:03.655Z,40
2017-06-14T10:12:04.237Z,40
2017-06-14T10:13:04.821Z,40
2017-06-14T10:14:05.403Z,40
2017-06-14T10:15:05.986Z,40
2017-06-14T10:16:06.568Z,40
2017-06-14T10:17:07.149Z,40
2017-06-14T10:18:07.735Z,40
2017-06-14T10:19:08.316Z,40
2017-06-14T10:20:08.899Z,40
2017-06-14T10:21:09.482Z,40
2017-06-14T10:22:10.063Z,40
2017-06-14T10:23:10.647Z,40
2017-06-14T10:24:11.230Z,40
2017-06-14T10:25:11.814Z,40
2017-06-14T10:26:12.395Z,40
2017-06-14T10:27:12.977Z,40
2017-06-14T10:28:13.561Z,40
2017-06-14T10:29:14.144Z,40
2017-06-14T10:30:14.730Z,40
2017-06-14T10:31:15.309Z,40
2017-06-14T10:32:15.891Z,40
2017-06-14T10:33:16.475Z,40
2017-06-14T10:34:17.059Z,40
2017-06-14T10:35:17.641Z,40
2017-06-14T10:36:18.223Z,40
2017-06-14T10:37:18.805Z,40
2017-06-14T10:38:19.391Z,40
2017-06-14T10:39:19.983Z,40
2017-06-14T10:40:20.565Z,40
2017-06-14T10:41:21.149Z,40
2017-06-14T10:42:21.731Z,40
2017-06-14T10:43:22.314Z,40
2017-06-14T10:44:22.896Z,40
2017-06-14T10:45:23.491Z,40
2017-06-14T10:46:24.072Z,40
2017-06-14T10:47:24.654Z,40
2017-06-14T10:48:25.237Z,40
2017-06-14T10:49:25.823Z,40
2017-06-14T10:50:26.403Z,40
2017-06-14T10:51:26.986Z,40
2017-06-14T10:52:27.567Z,40
2017-06-14T10:53:28.149Z,40
2017-06-14T10:54:28.733Z,40
2017-06-14T10:55:29.314Z,40
2017-06-14T10:56:29.900Z,40
2017-06-14T10:57:30.484Z,40
2017-06-14T10:58:31.063Z,40
2017-06-14T10:59:31.647Z,40
2017-06-14T11:00:32.230Z,40
2017-06-14T11:01:32.814Z,40
2017-06-14T11:02:33.397Z,40
2017-06-14T11:03:33.978Z,40
2017-06-14T11:04:34.589Z,40
2017-06-14T11:05:35.145Z,40
2017-06-14T11:06:35.730Z,40
2017-06-14T11:07:36.311Z,40
2017-06-14T11:08:36.893Z,40
2017-06-14T11:09:37.477Z,40
2017-06-14T11:10:38.060Z,40
2017-06-14T11:11:38.645Z,40
2017-06-14T11:12:39.239Z,40
2017-06-14T11:13:39.821Z,40
2017-06-14T11:14:40.403Z,40
2017-06-14T11:15:40.985Z,40
2017-06-14T11:16:41.569Z,40
2017-06-14T11:17:42.158Z,40
2017-06-14T11:18:42.740Z,40
2017-06-14T11:19:43.323Z,40
2017-06-14T11:20:43.906Z,40
2017-06-14T11:21:44.488Z,40
2017-06-14T11:22:45.073Z,40
2017-06-14T11:23:45.656Z,40
2017-06-14T11:24:46.236Z,40
2017-06-14T11:25:46.819Z,40
2017-06-14T11:26:47.409Z,40
2017-06-14T11:27:47.987Z,40
2017-06-14T11:28:48.569Z,40
2017-06-14T11:29:49.151Z,40
2017-06-14T11:30:49.733Z,40
2017-06-14T11:31:50.318Z,40
2017-06-14T11:32:50.901Z,40
2017-06-14T11:33:51.483Z,40
2017-06-14T11:34:52.067Z,40
2017-06-14T11:35:52.650Z,40
2017-06-14T11:36:53.232Z,40
2017-06-14T11:37:53.816Z,40
2017-06-14T11:38:54.399Z,40
2017-06-14T11:39:54.984Z,40
2017-06-14T11:40:55.579Z,40
2017-06-14T11:41:56.161Z,40
2017-06-14T11:42:56.744Z,40
2017-06-14T11:43:57.327Z,40
2017-06-14T11:44:57.910Z,40
2017-06-14T11:45:58.505Z,40
2017-06-14T11:46:59.087Z,40
2017-06-14T11:47:59.671Z,40
2017-06-14T11:49:00.256Z,40
2017-06-14T11:50:00.838Z,40
2017-06-14T11:51:01.422Z,40
2017-06-14T11:52:02.004Z,45
2017-06-14T11:53:02.587Z,40
2017-06-14T11:54:03.172Z,40
2017-06-14T11:55:03.756Z,45
2017-06-14T11:56:04.340Z,40
2017-06-14T11:57:04.923Z,40
2017-06-14T11:58:05.506Z,40
2017-06-14T11:59:06.101Z,45
2017-06-14T12:00:06.688Z,40
2017-06-14T12:01:07.267Z,40
2017-06-14T12:02:07.862Z,40
2017-06-14T12:03:08.444Z,45
2017-06-14T12:04:09.040Z,40
2017-06-14T12:05:09.622Z,40
2017-06-14T12:06:10.207Z,40
2017-06-14T12:07:10.790Z,45
2017-06-14T12:08:11.375Z,45
2017-06-14T12:09:11.959Z,45
2017-06-14T12:10:12.542Z,45
2017-06-14T12:11:13.126Z,45
2017-06-14T12:12:13.711Z,45
2017-06-14T12:13:14.297Z,45
2017-06-14T12:14:14.881Z,40
2017-06-14T12:15:15.465Z,45
2017-06-14T12:16:16.060Z,45
2017-06-14T12:17:16.644Z,45
2017-06-14T12:18:17.229Z,45
2017-06-14T12:19:17.825Z,45
2017-06-14T12:20:18.410Z,40
2017-06-14T12:21:18.995Z,40
2017-06-14T12:22:19.580Z,45
2017-06-14T12:23:20.164Z,40
2017-06-14T12:24:20.750Z,40
2017-06-14T12:25:21.335Z,45
2017-06-14T12:26:21.919Z,45
2017-06-14T12:27:22.503Z,45
2017-06-14T12:28:23.089Z,45
2017-06-14T12:29:23.684Z,45
2017-06-14T12:30:24.268Z,45
2017-06-14T12:31:24.853Z,40
2017-06-14T12:32:25.438Z,45
2017-06-14T12:33:26.026Z,45
2017-06-14T12:34:26.607Z,45
2017-06-14T12:35:27.192Z,45
2017-06-14T12:36:27.777Z,45
2017-06-14T12:37:28.362Z,45
2017-06-14T12:38:28.946Z,45
2017-06-14T12:39:29.531Z,45
2017-06-14T12:40:30.116Z,45
2017-06-14T12:41:30.707Z,45
2017-06-14T12:42:31.285Z,45
2017-06-14T12:43:31.871Z,50
2017-06-14T12:44:32.456Z,45
2017-06-14T12:45:33.041Z,50
2017-06-14T12:46:33.624Z,50
2017-06-14T12:47:34.208Z,45
2017-06-14T12:48:34.793Z,45
2017-06-14T12:49:35.379Z,45
2017-06-14T12:50:35.963Z,45
2017-06-14T12:51:36.547Z,45
2017-06-14T12:52:37.133Z,45
2017-06-14T12:53:37.717Z,45
2017-06-14T12:54:38.302Z,45
2017-06-14T12:55:38.886Z,45
2017-06-14T12:56:39.472Z,45
2017-06-14T12:57:40.059Z,45
2017-06-14T12:58:40.644Z,45
2017-06-14T12:59:41.228Z,50
2017-06-14T13:00:41.814Z,45
2017-06-14T13:01:42.398Z,45
2017-06-14T13:02:42.986Z,45
2017-06-14T13:03:43.568Z,45
2017-06-14T13:04:44.152Z,50
2017-06-14T13:05:44.739Z,45
2017-06-14T13:06:45.323Z,45
2017-06-14T13:07:45.908Z,45
2017-06-14T13:08:46.494Z,50
2017-06-14T13:09:47.079Z,50
2017-06-14T13:10:47.664Z,45
2017-06-14T13:11:48.249Z,50
2017-06-14T13:12:48.833Z,50
2017-06-14T13:13:49.420Z,50
2017-06-14T13:14:50.004Z,50
2017-06-14T13:15:50.588Z,50
2017-06-14T13:16:51.174Z,50
2017-06-14T13:17:51.758Z,45
2017-06-14T13:18:52.343Z,45
2017-06-14T13:19:52.929Z,45
2017-06-14T13:20:53.513Z,45
2017-06-14T13:21:54.099Z,45
2017-06-14T13:22:54.683Z,45
2017-06-14T13:23:55.298Z,50
2017-06-14T13:24:55.852Z,45
2017-06-14T13:25:56.438Z,45
2017-06-14T13:26:57.024Z,45
2017-06-14T13:27:57.608Z,45
2017-06-14T13:28:58.193Z,50
2017-06-14T13:29:58.789Z,50
2017-06-14T13:30:59.387Z,45
2017-06-14T13:31:59.971Z,45
2017-06-14T13:33:00.558Z,50
2017-06-14T13:34:01.141Z,50
2017-06-14T13:35:01.727Z,50
2017-06-14T13:36:02.312Z,45
2017-06-14T13:37:02.908Z,50
2017-06-14T13:38:03.491Z,50
2017-06-14T13:39:04.077Z,50
2017-06-14T13:40:04.663Z,50
2017-06-14T13:41:05.246Z,55
2017-06-14T13:42:05.833Z,50
2017-06-14T13:43:06.417Z,50
2017-06-14T13:44:07.001Z,50
2017-06-14T13:45:07.587Z,50
2017-06-14T13:46:08.172Z,50
2017-06-14T13:47:08.768Z,50
2017-06-14T13:48:09.357Z,50
2017-06-14T13:49:09.938Z,45
2017-06-14T13:50:10.523Z,45
2017-06-14T13:51:11.110Z,50
2017-06-14T13:52:11.695Z,50
2017-06-14T13:53:12.280Z,50
2017-06-14T13:54:12.864Z,50
2017-06-14T13:55:13.459Z,50
2017-06-14T13:56:14.043Z,50
2017-06-14T13:57:14.632Z,50
2017-06-14T13:58:15.216Z,40
2017-06-14T13:59:15.801Z,45
2017-06-14T14:00:16.386Z,50
2017-06-14T14:01:16.983Z,50
2017-06-14T14:02:17.567Z,50
2017-06-14T14:03:18.152Z,45
2017-06-14T14:04:18.738Z,50
2017-06-14T14:05:19.324Z,50
2017-06-14T14:06:19.910Z,50
2017-06-14T14:07:20.494Z,50
2017-06-14T14:08:21.080Z,50
2017-06-14T14:09:21.666Z,50
2017-06-14T14:10:22.273Z,50
2017-06-14T14:11:22.857Z,50
2017-06-14T14:12:23.456Z,50
2017-06-14T14:13:24.039Z,50
2017-06-14T14:14:24.624Z,50
2017-06-14T14:15:25.210Z,50
2017-06-14T14:16:25.801Z,45
2017-06-14T14:17:26.380Z,50
2017-06-14T14:18:26.972Z,50
2017-06-14T14:19:27.551Z,50
2017-06-14T14:20:28.137Z,55
2017-06-14T14:21:28.734Z,55
2017-06-14T14:22:29.319Z,60
2017-06-14T14:23:29.903Z,60
2017-06-14T14:24:30.488Z,65
2017-06-14T14:25:31.073Z,65
2017-06-14T14:26:31.659Z,60
2017-06-14T14:27:32.244Z,60
2017-06-14T14:28:32.828Z,60
2017-06-14T14:29:33.415Z,70
2017-06-14T14:30:33.999Z,70
2017-06-14T14:31:34.587Z,70
2017-06-14T14:32:35.170Z,70